createdAt,value
2022-08-29T00:00:38.414Z,9.17
2022-08-29T00:06:03.253Z,10.53
2022-08-29T00:11:26.514Z,10.87
2022-08-29T00:16:48.829Z,10.45
2022-08-29T00:22:11.637Z,10.93
2022-08-29T00:27:33.846Z,11.38
2022-08-29T00:32:57.261Z,8.93
2022-08-29T00:38:22.908Z,9.55
2022-08-29T00:43:49.720Z,8.55
2022-08-29T00:49:16.329Z,9.55
2022-08-29T00:54:39.473Z,9.50
2022-08-29T01:00:04.281Z,7.97
2022-08-29T01:05:30.390Z,10.23
2022-08-29T01:11:11.837Z,11.50
2022-08-29T01:16:37.524Z,13.03
2022-08-29T01:22:12.933Z,10.55
2022-08-29T01:27:38.397Z,9.70
2022-08-29T01:33:02.205Z,6.50
2022-08-29T01:38:30.041Z,8.63
2022-08-29T01:43:57.569Z,12.20
2022-08-29T01:49:22.982Z,14.03
2022-08-29T01:54:47.000Z,9.03
2022-08-29T02:00:11.774Z,14.28
2022-08-29T02:05:35.558Z,10.65
2022-08-29T02:10:58.757Z,14.03
2022-08-29T02:16:22.369Z,9.58
2022-08-29T02:21:46.369Z,12.47
2022-08-29T02:27:09.702Z,13.22
2022-08-29T02:32:33.050Z,13.98
2022-08-29T02:37:56.139Z,9.58
2022-08-29T02:43:20.096Z,13.55
2022-08-29T02:48:42.316Z,11.78
2022-08-29T02:54:07.668Z,8.58
2022-08-29T02:59:29.857Z,10.10
2022-08-29T03:04:52.417Z,11.50
2022-08-29T03:10:16.578Z,11.68
2022-08-29T03:15:39.104Z,11.35
2022-08-29T03:21:02.541Z,12.68
2022-08-29T03:26:25.617Z,9.40
2022-08-29T03:31:48.470Z,11.43
2022-08-29T03:37:11.845Z,13.80
2022-08-29T03:42:34.211Z,15.90
2022-08-29T03:47:57.425Z,12.75
2022-08-29T03:53:19.690Z,12.95
2022-08-29T03:58:42.495Z,13.53
2022-08-29T04:04:04.902Z,11.43
2022-08-29T04:09:27.116Z,11.12
2022-08-29T04:14:49.651Z,13.00
2022-08-29T04:20:13.814Z,13.20
2022-08-29T04:25:37.978Z,13.38
2022-08-29T04:31:03.261Z,12.35
2022-08-29T04:36:26.416Z,16.87
2022-08-29T04:41:49.419Z,11.83
2022-08-29T04:47:12.214Z,16.93
2022-08-29T04:52:37.695Z,9.85
2022-08-29T04:58:01.437Z,16.35
2022-08-29T05:03:23.918Z,14.05
2022-08-29T05:08:48.387Z,10.13
2022-08-29T05:14:13.155Z,14.13
2022-08-29T05:19:35.445Z,11.53
2022-08-29T05:24:58.816Z,18.35
2022-08-29T05:30:35.047Z,13.93
2022-08-29T05:35:48.467Z,13.83
2022-08-29T05:41:11.621Z,13.50
2022-08-29T05:46:34.027Z,13.13
2022-08-29T05:51:58.201Z,14.47
2022-08-29T05:57:23.985Z,18.12
2022-08-29T06:02:46.542Z,15.05
2022-08-29T06:08:10.597Z,13.22
2022-08-29T06:13:33.431Z,13.13
2022-08-29T06:18:55.739Z,13.62
2022-08-29T06:24:18.899Z,12.75
2022-08-29T06:29:43.662Z,13.95
2022-08-29T06:35:07.429Z,13.38
2022-08-29T06:40:30.306Z,16.48
2022-08-29T06:45:55.256Z,9.75
2022-08-29T06:51:22.454Z,11.33
2022-08-29T06:56:45.827Z,12.60
2022-08-29T07:02:08.552Z,14.03
2022-08-29T07:07:30.803Z,13.58
2022-08-29T07:12:54.690Z,14.43
2022-08-29T07:18:17.216Z,15.45
2022-08-29T07:23:41.024Z,14.50
2022-08-29T07:29:07.515Z,13.05
2022-08-29T07:34:30.300Z,12.50
2022-08-29T07:39:52.569Z,14.65
2022-08-29T07:45:15.924Z,18.07
2022-08-29T07:50:39.461Z,12.83
2022-08-29T07:56:02.864Z,12.53
2022-08-29T08:01:26.005Z,13.40
2022-08-29T08:06:49.999Z,15.58
2022-08-29T08:12:13.149Z,15.18
2022-08-29T08:17:36.326Z,14.45
2022-08-29T08:23:00.278Z,15.78
2022-08-29T08:28:24.373Z,11.25
2022-08-29T08:33:49.146Z,9.48
2022-08-29T08:39:12.758Z,9.45
2022-08-29T08:44:40.056Z,8.35
2022-08-29T08:50:14.414Z,10.00
2022-08-29T08:56:01.929Z,9.78
2022-08-29T09:01:48.274Z,13.25
2022-08-29T09:07:56.413Z,7.35
2022-08-29T09:13:42.580Z,8.48
2022-08-29T09:19:09.725Z,9.73
2022-08-29T09:24:42.686Z,15.15
2022-08-29T09:30:10.236Z,9.53
2022-08-29T09:35:43.342Z,9.63
2022-08-29T09:41:15.465Z,8.05
2022-08-29T09:46:43.234Z,7.65
2022-08-29T09:52:16.209Z,8.35
2022-08-29T09:57:42.722Z,8.25
2022-08-29T10:03:11.753Z,6.28
2022-08-29T10:09:12.481Z,5.83
2022-08-29T10:15:00.234Z,6.17
2022-08-29T10:20:25.274Z,6.80
2022-08-29T10:25:50.532Z,6.65
2022-08-29T10:31:32.287Z,5.78
2022-08-29T10:36:58.731Z,3.50
2022-08-29T10:42:27.339Z,5.45
2022-08-29T10:47:55.243Z,4.72
2022-08-29T10:53:34.951Z,3.52
2022-08-29T10:59:32.785Z,5.20
2022-08-29T11:05:00.022Z,6.33
2022-08-29T11:10:35.449Z,8.28
2022-08-29T11:16:09.415Z,4.72
2022-08-29T11:21:47.897Z,4.00
2022-08-29T11:27:23.621Z,4.57
2022-08-29T11:33:03.878Z,6.65
2022-08-29T11:38:58.098Z,8.55
2022-08-29T11:44:43.181Z,4.60
2022-08-29T11:50:11.379Z,5.67
2022-08-29T11:55:50.556Z,7.62
2022-08-29T12:01:33.765Z,7.55
2022-08-29T12:07:21.331Z,8.70
2022-08-29T12:12:59.737Z,7.07
2022-08-29T12:18:33.389Z,6.67
2022-08-29T12:23:55.600Z,5.07
2022-08-29T12:29:25.065Z,6.67
2022-08-29T12:35:15.069Z,6.83
2022-08-29T12:40:57.231Z,5.00
2022-08-29T12:46:30.062Z,3.45
2022-08-29T12:51:57.390Z,4.10
2022-08-29T12:57:24.239Z,3.37
2022-08-29T13:02:53.541Z,3.47
2022-08-29T13:08:41.674Z,4.70
2022-08-29T13:14:13.025Z,4.05
2022-08-29T13:19:40.174Z,4.78
2022-08-29T13:25:10.989Z,3.12
2022-08-29T13:30:36.640Z,2.60
2022-08-29T13:36:00.520Z,2.72
2022-08-29T13:41:26.886Z,2.77
2022-08-29T13:46:51.605Z,2.75
2022-08-29T13:52:14.451Z,2.17
2022-08-29T13:57:39.635Z,2.83
2022-08-29T14:03:04.191Z,2.77
2022-08-29T14:08:28.909Z,4.28
2022-08-29T14:13:51.675Z,5.70
2022-08-29T14:19:13.966Z,2.33
2022-08-29T14:24:37.986Z,3.35
2022-08-29T14:30:00.940Z,3.17
2022-08-29T14:35:26.824Z,3.70
2022-08-29T14:40:49.947Z,3.25
2022-08-29T14:46:12.855Z,2.98
2022-08-29T14:51:35.740Z,3.22
2022-08-29T14:57:00.151Z,4.33
2022-08-29T15:02:23.447Z,2.40
2022-08-29T15:07:46.611Z,3.35
2022-08-29T15:13:11.099Z,2.58
2022-08-29T15:19:22.362Z,3.37
2022-08-29T15:23:57.978Z,5.40
2022-08-29T15:29:21.595Z,3.72
2022-08-29T15:34:44.722Z,3.70
2022-08-29T15:40:12.422Z,2.50
2022-08-29T15:45:32.665Z,4.15
2022-08-29T15:50:54.967Z,5.33
2022-08-29T15:56:17.580Z,4.62
2022-08-29T16:01:47.169Z,5.40
2022-08-29T16:07:12.757Z,3.65
2022-08-29T16:12:35.541Z,5.22
2022-08-29T16:17:57.788Z,5.78
2022-08-29T16:23:20.825Z,4.03
2022-08-29T16:28:45.001Z,6.67
2022-08-29T16:34:08.220Z,4.40
2022-08-29T16:39:30.893Z,5.12
2022-08-29T16:44:54.352Z,4.43
2022-08-29T16:50:18.448Z,4.22
2022-08-29T16:55:41.758Z,4.67
2022-08-29T17:01:04.392Z,5.03
2022-08-29T17:06:29.216Z,6.45
2022-08-29T17:11:51.603Z,4.67
2022-08-29T17:17:14.645Z,6.90
2022-08-29T17:22:37.457Z,5.25
2022-08-29T17:28:17.082Z,5.12
2022-08-29T17:33:27.299Z,7.15
2022-08-29T17:38:51.825Z,7.50
2022-08-29T17:44:15.081Z,6.22
2022-08-29T17:49:37.641Z,6.45
2022-08-29T17:55:03.776Z,6.22
2022-08-29T18:00:25.874Z,6.90
2022-08-29T18:05:48.754Z,6.28
2022-08-29T18:11:11.069Z,6.67
2022-08-29T18:16:33.763Z,6.87
2022-08-29T18:21:57.913Z,9.25
2022-08-29T18:27:20.505Z,7.33
2022-08-29T18:32:43.124Z,7.35
2022-08-29T18:38:05.317Z,6.17
2022-08-29T18:43:28.514Z,7.07
2022-08-29T18:48:51.610Z,6.85
2022-08-29T18:54:18.939Z,9.10
2022-08-29T18:59:38.542Z,9.15
2022-08-29T19:05:01.248Z,6.95
2022-08-29T19:10:26.468Z,6.80
2022-08-29T19:15:51.073Z,8.37
2022-08-29T19:21:14.026Z,5.65
2022-08-29T19:26:45.343Z,7.90
2022-08-29T19:32:08.545Z,6.87
2022-08-29T19:37:30.782Z,8.70
2022-08-29T19:42:55.481Z,8.78
2022-08-29T19:48:19.306Z,7.05
2022-08-29T19:53:42.654Z,6.00
2022-08-29T19:59:06.393Z,6.28
2022-08-29T20:04:29.339Z,8.38
2022-08-29T20:09:52.705Z,7.28
2022-08-29T20:15:16.303Z,6.50
2022-08-29T20:20:42.215Z,11.75
2022-08-29T20:26:05.349Z,6.42
2022-08-29T20:31:28.330Z,8.00
2022-08-29T20:37:08.902Z,7.12
2022-08-29T20:42:33.374Z,8.65
2022-08-29T20:47:57.236Z,6.67
2022-08-29T20:53:32.134Z,8.60
2022-08-29T20:58:44.276Z,6.47
2022-08-29T21:04:24.565Z,4.40
2022-08-29T21:09:50.851Z,5.70
2022-08-29T21:15:13.939Z,5.08
2022-08-29T21:20:36.195Z,4.30
2022-08-29T21:26:02.721Z,6.28
2022-08-29T21:31:26.623Z,6.22
2022-08-29T21:36:50.469Z,6.20
2022-08-29T21:42:12.803Z,7.12
2022-08-29T21:47:35.447Z,7.62
2022-08-29T21:52:58.710Z,6.78
2022-08-29T21:58:21.592Z,7.40
2022-08-29T22:03:50.087Z,4.25
2022-08-29T22:09:10.648Z,4.55
2022-08-29T22:14:51.634Z,3.85
2022-08-29T22:20:14.010Z,4.97
2022-08-29T22:25:37.038Z,4.33
2022-08-29T22:30:59.245Z,3.98
2022-08-29T22:36:23.361Z,5.42
2022-08-29T22:41:47.924Z,3.47
2022-08-29T22:47:10.241Z,3.22
2022-08-29T22:52:33.472Z,2.87
2022-08-29T22:57:55.696Z,3.47
2022-08-29T23:03:18.925Z,5.42
2022-08-29T23:08:41.701Z,3.65
2022-08-29T23:14:05.552Z,1.77
2022-08-29T23:19:29.348Z,4.53
2022-08-29T23:24:57.748Z,2.52
2022-08-29T23:30:20.180Z,3.08
2022-08-29T23:35:42.438Z,3.02
2022-08-29T23:41:04.681Z,3.58
2022-08-29T23:46:27.671Z,4.85
2022-08-29T23:51:49.887Z,3.27
2022-08-29T23:57:12.427Z,3.65
